Time;durP1;ratioP1;P1;durP2;ratioP2;P2;SDS_P1;SDS_P2;PMS_P1;PMS_P2;Temp;Humidity;BMP_temperature;BMP_pressure;BME280_temperature;BME280_humidity;BME280_pressure;Samples;Min_cycle;Max_cycle;Signal;HPM_P1;HPM_P2
2021/12/16 00:01:56;;;;;;;;;;;;;;;15.46;67.48;103051.03;1050282;28;703;-58
2021/12/16 00:05:14;;;;;;;;;;;;;;;15.44;68.14;103048.44;1049624;28;716;-58
2021/12/16 00:06:43;;;;;;;;;;;;;;;15.45;67.79;103044.78;1048615;28;848;-58
2021/12/16 00:08:35;;;;;;;;;;;;;;;15.45;67.98;103054.66;1049696;28;826;-57
2021/12/16 00:09:23;;;;;;;;;;;;;;;15.43;67.92;103044.00;1052139;28;1901;-60
2021/12/16 00:10:24;;;;;;;;;;;;;;;15.42;67.99;103047.63;1053308;28;717;-58
2021/12/16 00:11:27;;;;;;;;;;;;;;;15.41;68.00;103043.19;1053196;28;1978;-58
2021/12/16 00:19:47;;;;;;;;;;;;;;;15.42;67.82;103060.19;1052442;28;641;-59
2021/12/16 00:30:05;;;;;;;;;;;;;;;15.41;67.92;103042.31;1048984;28;649;-59
2021/12/16 00:32:19;;;;;;;;;;;;;;;15.40;67.79;103048.69;1049200;28;710;-59
2021/12/16 00:33:16;;;;;;;;;;;;;;;15.39;68.04;103058.56;1049984;28;2033;-60
2021/12/16 00:34:07;;;;;;;;;;;;;;;15.38;68.09;103056.81;1049607;28;680;-59
2021/12/16 00:34:57;;;;;;;;;;;;;;;15.38;67.97;103054.13;1049470;28;855;-60
2021/12/16 00:35:48;;;;;;;;;;;;;;;15.37;68.20;103044.31;1049556;28;704;-59
2021/12/16 00:36:38;;;;;;;;;;;;;;;15.38;68.36;103050.56;1049381;28;975;-60
2021/12/16 00:37:29;;;;;;;;;;;;;;;15.38;67.92;103054.13;1049651;28;791;-59
2021/12/16 00:38:19;;;;;;;;;;;;;;;15.38;67.94;103054.13;1045320;28;809;-59
2021/12/16 00:39:09;;;;;;;;;;;;;;;15.38;68.22;103053.25;1045677;28;946;-59
2021/12/16 00:40:00;;;;;;;;;;;;;;;15.38;68.18;103056.81;1050084;28;762;-59
2021/12/16 00:40:50;;;;;;;;;;;;;;;15.37;68.33;103057.75;1049568;28;956;-60
2021/12/16 00:41:43;;;;;;;;;;;;;;;15.36;68.49;103056.00;1049643;28;692;-59
2021/12/16 00:43:40;;;;;;;;;;;;;;;15.37;67.88;103056.88;1049668;28;798;-59
2021/12/16 00:45:45;;;;;;;;;;;;;;;15.36;67.96;103056.00;1051893;28;1562;-59
2021/12/16 00:47:49;;;;;;;;;;;;;;;15.37;67.98;103054.19;1049556;28;766;-60
2021/12/16 00:49:37;;;;;;;;;;;;;;;15.36;68.01;103057.84;1048632;28;1576;-60
2021/12/16 00:54:14;;;;;;;;;;;;;;;15.35;68.10;103056.97;1053600;28;838;-61
2021/12/16 00:55:06;;;;;;;;;;;;;;;15.35;67.89;103059.66;1053706;28;784;-60
2021/12/16 00:55:58;;;;;;;;;;;;;;;15.34;68.44;103065.97;1054296;28;915;-60
2021/12/16 00:56:51;;;;;;;;;;;;;;;15.34;68.33;103067.78;1053704;28;688;-59
2021/12/16 00:57:44;;;;;;;;;;;;;;;15.33;68.48;103064.22;1050042;28;793;-60
2021/12/16 00:58:39;;;;;;;;;;;;;;;15.33;67.95;103061.53;1050151;28;723;-60
2021/12/16 00:59:34;;;;;;;;;;;;;;;15.32;68.48;103065.16;1050003;28;683;-60
2021/12/16 01:00:28;;;;;;;;;;;;;;;15.34;68.02;103062.41;1048922;28;681;-60
2021/12/16 01:01:42;;;;;;;;;;;;;;;15.35;68.08;103065.03;1050157;28;745;-60
2021/12/16 01:02:50;;;;;;;;;;;;;;;15.33;68.06;103053.47;1050057;28;624;-60
2021/12/16 01:04:11;;;;;;;;;;;;;;;15.34;68.33;103057.91;1049957;28;1358;-60
2021/12/16 01:08:17;;;;;;;;;;;;;;;15.31;68.13;103060.75;1049343;28;841;-60
2021/12/16 01:09:45;;;;;;;;;;;;;;;15.32;68.17;103066.97;1049758;28;1733;-60
2021/12/16 01:36:04;;;;;;;;;;;;;;;15.27;68.28;103086.88;1053525;28;816;-60
2021/12/16 01:39:40;;;;;;;;;;;;;;;15.26;68.30;103093.19;1053588;28;632;-59
2021/12/16 01:50:40;;;;;;;;;;;;;;;15.23;68.35;103105.91;1049979;28;640;-59
2021/12/16 01:51:51;;;;;;;;;;;;;;;15.24;68.38;103110.31;1049047;28;648;-59
2021/12/16 01:54:27;;;;;;;;;;;;;;;15.22;68.37;103110.44;1048198;28;785;-60
2021/12/16 01:55:18;;;;;;;;;;;;;;;15.22;68.10;103117.63;1049313;28;703;-59
2021/12/16 01:57:28;;;;;;;;;;;;;;;15.22;68.37;103112.25;1040566;28;1979;-59
2021/12/16 01:58:21;;;;;;;;;;;;;;;15.20;67.92;103108.75;1052916;28;793;-59
2021/12/16 01:59:18;;;;;;;;;;;;;;;15.20;68.33;103112.31;1053504;28;659;-59
2021/12/16 02:00:09;;;;;;;;;;;;;;;15.19;68.15;103110.56;1051966;28;1355;-59
2021/12/16 02:01:10;;;;;;;;;;;;;;;15.21;68.09;103118.56;1053559;28;790;-59
2021/12/16 02:02:11;;;;;;;;;;;;;;;15.20;68.33;103116.81;1053521;28;833;-59
2021/12/16 02:03:05;;;;;;;;;;;;;;;15.20;68.30;103117.69;1053594;28;728;-59
2021/12/16 02:03:55;;;;;;;;;;;;;;;15.20;67.81;103115.00;1053516;28;1361;-60
2021/12/16 02:05:55;;;;;;;;;;;;;;;15.20;67.97;103114.13;1053388;28;786;-59
2021/12/16 02:06:37;;;;;;;;;;;;;;;15.19;68.09;103120.44;1050586;28;1458;-60
2021/12/16 02:07:56;;;;;;;;;;;;;;;15.19;68.48;103125.81;1053536;28;673;-59
2021/12/16 02:08:41;;;;;;;;;;;;;;;15.21;68.25;103115.88;1053434;28;832;-59
2021/12/16 02:09:39;;;;;;;;;;;;;;;15.20;68.21;103119.50;1052833;28;1770;-59
2021/12/16 02:10:36;;;;;;;;;;;;;;;15.19;68.21;103107.88;1049349;28;737;-59
2021/12/16 02:11:46;;;;;;;;;;;;;;;15.18;68.37;103116.00;1046011;28;759;-60
2021/12/16 02:27:15;;;;;;;;;;;;;;;15.18;68.13;103114.19;1048762;28;806;-61
2021/12/16 02:29:03;;;;;;;;;;;;;;;15.16;68.17;103124.16;1051455;28;1922;-58
2021/12/16 02:30:54;;;;;;;;;;;;;;;15.15;68.44;103122.41;1054013;28;752;-59
2021/12/16 02:31:37;;;;;;;;;;;;;;;15.15;68.07;103124.22;1053255;28;1964;-58
2021/12/16 02:32:48;;;;;;;;;;;;;;;15.13;68.33;103121.59;1052922;28;680;-59
2021/12/16 02:35:33;;;;;;;;;;;;;;;15.14;67.91;103122.47;1053384;28;1467;-59
2021/12/16 02:36:30;;;;;;;;;;;;;;;15.13;68.32;103120.72;1052872;28;690;-59
2021/12/16 02:37:22;;;;;;;;;;;;;;;15.14;68.42;103125.16;1053407;28;695;-59
2021/12/16 02:38:15;;;;;;;;;;;;;;;15.14;68.10;103119.78;1054208;28;1144;-60
2021/12/16 02:39:05;;;;;;;;;;;;;;;15.14;68.08;103117.09;1054326;28;710;-60
2021/12/16 02:39:55;;;;;;;;;;;;;;;15.13;68.42;103124.28;1053626;28;743;-59
2021/12/16 02:40:46;;;;;;;;;;;;;;;15.12;67.97;103125.22;1053085;28;1856;-59
2021/12/16 02:41:39;;;;;;;;;;;;;;;15.11;67.83;103126.16;1053816;28;1006;-59
2021/12/16 02:42:52;;;;;;;;;;;;;;;15.10;68.41;103127.13;1053657;28;852;-59
2021/12/16 02:44:08;;;;;;;;;;;;;;;15.12;67.57;103132.41;1053834;28;668;-59
2021/12/16 02:49:16;;;;;;;;;;;;;;;15.10;68.33;103126.25;1053511;28;620;-60
2021/12/16 02:50:07;;;;;;;;;;;;;;;15.11;67.94;103119.94;1050170;28;909;-59
2021/12/16 02:50:57;;;;;;;;;;;;;;;15.11;67.88;103125.28;1050765;28;1906;-59
2021/12/16 02:51:48;;;;;;;;;;;;;;;15.11;68.27;103120.78;1055247;28;705;-60
2021/12/16 02:52:38;;;;;;;;;;;;;;;15.11;68.08;103119.94;1051243;28;1816;-59
2021/12/16 02:53:29;;;;;;;;;;;;;;;15.10;67.85;103120.88;1049988;28;632;-60
2021/12/16 02:54:19;;;;;;;;;;;;;;;15.10;68.49;103128.94;1050163;28;838;-60
2021/12/16 02:55:10;;;;;;;;;;;;;;;15.10;68.31;103119.06;1050004;28;765;-60
2021/12/16 02:56:00;;;;;;;;;;;;;;;15.10;68.35;103123.56;1052333;28;2279;-61
2021/12/16 02:56:50;;;;;;;;;;;;;;;15.10;68.32;103118.19;1054529;28;830;-61
2021/12/16 02:57:48;;;;;;;;;;;;;;;15.09;67.84;103122.69;1054554;28;803;-60
2021/12/16 02:58:38;;;;;;;;;;;;;;;15.10;68.09;103120.88;1054194;28;888;-59
2021/12/16 02:59:30;;;;;;;;;;;;;;;15.09;68.18;103128.06;1054792;28;703;-60
2021/12/16 03:00:20;;;;;;;;;;;;;;;15.08;68.06;103120.94;1054085;28;671;-59
2021/12/16 03:01:11;;;;;;;;;;;;;;;15.09;68.22;103125.38;1051175;28;1974;-60
2021/12/16 03:02:05;;;;;;;;;;;;;;;15.09;68.02;103121.81;1050139;28;802;-60
2021/12/16 03:02:56;;;;;;;;;;;;;;;15.09;67.95;103114.63;1049823;28;895;-60
2021/12/16 03:03:46;;;;;;;;;;;;;;;15.08;68.06;103114.69;1050036;28;1306;-60
2021/12/16 03:04:36;;;;;;;;;;;;;;;15.09;67.81;103116.44;1049935;28;859;-60
2021/12/16 03:05:27;;;;;;;;;;;;;;;15.08;67.83;103120.94;1050068;28;763;-59
2021/12/16 03:06:17;;;;;;;;;;;;;;;15.07;68.31;103113.81;1045518;28;827;-60
2021/12/16 03:07:10;;;;;;;;;;;;;;;15.07;68.01;103112.94;1046042;28;774;-60
2021/12/16 03:08:01;;;;;;;;;;;;;;;15.06;68.09;103114.75;1050603;28;715;-60
2021/12/16 03:08:51;;;;;;;;;;;;;;;15.07;68.29;103112.94;1049990;28;818;-60
2021/12/16 03:10:08;;;;;;;;;;;;;;;15.07;67.72;103113.81;1049906;28;720;-60
2021/12/16 03:11:05;;;;;;;;;;;;;;;15.06;68.38;103120.13;1048944;28;1888;-60
2021/12/16 03:12:58;;;;;;;;;;;;;;;15.05;68.12;103120.25;1054245;28;804;-59
2021/12/16 03:14:06;;;;;;;;;;;;;;;15.05;68.62;103120.25;1053538;28;732;-59
2021/12/16 03:15:06;;;;;;;;;;;;;;;15.06;67.62;103117.44;1054098;28;787;-60
2021/12/16 03:16:13;;;;;;;;;;;;;;;15.06;67.92;103116.59;1053992;28;746;-60
2021/12/16 03:17:19;;;;;;;;;;;;;;;15.05;68.14;103114.88;1053468;28;680;-60
2021/12/16 03:18:34;;;;;;;;;;;;;;;15.05;68.25;103109.50;1053707;28;728;-60
2021/12/16 03:19:42;;;;;;;;;;;;;;;15.04;68.39;103110.44;1053576;28;927;-60
2021/12/16 03:20:45;;;;;;;;;;;;;;;15.04;68.16;103107.75;1053478;28;691;-59
2021/12/16 03:21:42;;;;;;;;;;;;;;;15.03;68.43;103106.88;1053593;28;953;-59
2021/12/16 03:23:52;;;;;;;;;;;;;;;15.01;68.33;103113.25;1046588;28;731;-60
2021/12/16 03:25:07;;;;;;;;;;;;;;;15.01;68.34;103113.25;1050340;28;770;-60
2021/12/16 03:27:20;;;;;;;;;;;;;;;15.00;68.27;103116.88;1049407;28;749;-60
2021/12/16 03:30:23;;;;;;;;;;;;;;;14.99;68.36;103113.34;1048936;28;761;-60
2021/12/16 03:37:22;;;;;;;;;;;;;;;15.00;67.87;103122.25;1050383;28;878;-60
2021/12/16 03:38:12;;;;;;;;;;;;;;;14.99;67.76;103121.38;1049373;28;925;-60
2021/12/16 03:39:03;;;;;;;;;;;;;;;14.97;68.33;103117.91;1050373;28;806;-60
2021/12/16 03:39:54;;;;;;;;;;;;;;;14.99;67.80;103124.06;1045991;28;714;-60
2021/12/16 03:40:44;;;;;;;;;;;;;;;14.98;68.01;103121.47;1047066;28;744;-60
2021/12/16 03:41:35;;;;;;;;;;;;;;;14.98;68.23;103124.16;1051002;28;628;-60
2021/12/16 03:42:25;;;;;;;;;;;;;;;14.97;68.10;103122.41;1045891;28;769;-60
2021/12/16 03:43:15;;;;;;;;;;;;;;;14.98;68.37;103124.16;1047081;28;654;-60
2021/12/16 03:44:08;;;;;;;;;;;;;;;14.98;68.13;103121.47;1050949;28;816;-60
2021/12/16 03:45:05;;;;;;;;;;;;;;;14.97;68.04;103125.09;1049185;28;766;-60
2021/12/16 03:47:04;;;;;;;;;;;;;;;14.96;67.94;103131.41;1049109;28;684;-60
2021/12/16 03:47:54;;;;;;;;;;;;;;;14.96;68.12;103126.03;1050019;28;720;-60
2021/12/16 03:48:45;;;;;;;;;;;;;;;14.94;68.37;103132.34;1050273;28;721;-60
2021/12/16 03:49:35;;;;;;;;;;;;;;;14.95;67.88;103119.78;1050442;28;625;-60
2021/12/16 03:50:25;;;;;;;;;;;;;;;14.96;67.65;103120.66;1050255;28;684;-60
2021/12/16 03:51:16;;;;;;;;;;;;;;;14.94;67.80;103124.28;1046323;28;1956;-61
2021/12/16 03:52:08;;;;;;;;;;;;;;;14.93;68.23;103116.31;1047471;28;803;-61
2021/12/16 03:52:58;;;;;;;;;;;;;;;14.94;67.82;103115.34;1051624;28;654;-60
2021/12/16 03:53:49;;;;;;;;;;;;;;;14.94;68.32;103115.34;1050427;28;624;-61
2021/12/16 03:54:41;;;;;;;;;;;;;;;14.93;67.96;103109.13;1050435;28;695;-60
2021/12/16 03:55:31;;;;;;;;;;;;;;;14.93;68.17;103111.81;1050432;28;707;-61
2021/12/16 03:56:23;;;;;;;;;;;;;;;14.92;68.16;103111.88;1050471;28;782;-60
2021/12/16 03:57:13;;;;;;;;;;;;;;;14.91;67.57;103110.13;1050342;28;840;-60
2021/12/16 03:58:04;;;;;;;;;;;;;;;14.91;68.36;103113.69;1050407;28;807;-60
2021/12/16 03:58:54;;;;;;;;;;;;;;;14.90;67.88;103117.31;1050719;28;1795;-60
2021/12/16 03:59:44;;;;;;;;;;;;;;;14.92;67.90;103119.91;1049766;28;706;-60
2021/12/16 04:00:35;;;;;;;;;;;;;;;14.90;68.10;103120.00;1049814;28;661;-61
2021/12/16 04:01:25;;;;;;;;;;;;;;;14.91;68.22;103119.06;1049684;28;748;-60
2021/12/16 04:02:16;;;;;;;;;;;;;;;14.93;68.28;103116.31;1049773;28;626;-60
2021/12/16 04:03:06;;;;;;;;;;;;;;;14.92;68.34;103126.16;1046579;28;648;-60
2021/12/16 04:03:57;;;;;;;;;;;;;;;14.93;67.77;103119.84;1046311;28;1565;-60
2021/12/16 04:04:47;;;;;;;;;;;;;;;14.93;68.20;103121.66;1050767;28;713;-61
2021/12/16 04:05:37;;;;;;;;;;;;;;;14.92;68.50;103114.56;1050241;28;918;-61
2021/12/16 04:06:28;;;;;;;;;;;;;;;14.91;67.72;103123.56;1050062;28;637;-60
2021/12/16 04:07:19;;;;;;;;;;;;;;;14.91;67.98;103119.06;1049904;28;719;-60
2021/12/16 04:08:09;;;;;;;;;;;;;;;14.91;67.85;103129.78;1050408;28;762;-60
2021/12/16 04:08:59;;;;;;;;;;;;;;;14.90;68.16;103124.50;1049780;28;775;-60
2021/12/16 04:09:50;;;;;;;;;;;;;;;14.90;67.96;103124.50;1049043;28;868;-59
2021/12/16 04:10:42;;;;;;;;;;;;;;;14.90;68.05;103127.19;1049303;28;665;-60
2021/12/16 04:11:38;;;;;;;;;;;;;;;14.91;68.05;103124.41;1049614;28;946;-60
2021/12/16 04:12:29;;;;;;;;;;;;;;;14.91;67.78;103129.78;1049685;28;688;-59
2021/12/16 04:13:20;;;;;;;;;;;;;;;14.91;68.07;103124.41;1049708;28;811;-59
2021/12/16 04:14:10;;;;;;;;;;;;;;;14.91;68.10;103126.25;1049647;28;796;-59
2021/12/16 04:15:01;;;;;;;;;;;;;;;14.90;68.13;103128.03;1050264;28;763;-59
2021/12/16 04:15:51;;;;;;;;;;;;;;;14.90;67.83;103124.50;1049679;28;1155;-59
2021/12/16 04:16:41;;;;;;;;;;;;;;;14.89;67.80;103131.69;1049731;28;633;-60
2021/12/16 04:17:32;;;;;;;;;;;;;;;14.88;68.17;103129.94;1049764;28;729;-59
2021/12/16 04:18:22;;;;;;;;;;;;;;;14.90;67.81;103138.78;1049736;28;653;-59
2021/12/16 04:19:13;;;;;;;;;;;;;;;14.90;67.89;103132.53;1050281;28;613;-59
2021/12/16 04:20:03;;;;;;;;;;;;;;;14.90;68.23;103135.22;1049585;28;728;-60
2021/12/16 04:20:54;;;;;;;;;;;;;;;14.89;68.11;103131.69;1050382;28;851;-59
2021/12/16 04:21:44;;;;;;;;;;;;;;;14.90;67.77;103133.41;1049681;28;877;-59
2021/12/16 04:22:38;;;;;;;;;;;;;;;14.89;67.65;103137.03;1049771;28;653;-59
2021/12/16 04:23:28;;;;;;;;;;;;;;;14.89;68.47;103131.69;1049660;28;719;-59
2021/12/16 04:24:18;;;;;;;;;;;;;;;14.88;68.25;103127.25;1048726;28;852;-60
2021/12/16 04:25:09;;;;;;;;;;;;;;;14.90;68.15;103129.84;1050184;28;1009;-60
2021/12/16 04:25:59;;;;;;;;;;;;;;;14.89;67.59;103134.34;1048686;28;707;-59
2021/12/16 04:26:50;;;;;;;;;;;;;;;14.88;68.06;103137.97;1048460;28;771;-59
2021/12/16 04:27:40;;;;;;;;;;;;;;;14.89;68.19;103131.69;1048583;28;757;-59
2021/12/16 04:28:31;;;;;;;;;;;;;;;14.89;68.09;103139.72;1048754;28;1025;-59
2021/12/16 04:29:23;;;;;;;;;;;;;;;14.88;67.84;103129.94;1048533;28;634;-60
2021/12/16 04:30:13;;;;;;;;;;;;;;;14.88;68.01;103137.09;1049642;28;629;-60
2021/12/16 04:31:03;;;;;;;;;;;;;;;14.88;67.73;103135.31;1046323;28;1962;-59
2021/12/16 04:31:54;;;;;;;;;;;;;;;14.89;67.64;103136.16;1046369;28;705;-59
2021/12/16 04:32:44;;;;;;;;;;;;;;;14.87;67.90;103138.91;1050542;28;912;-60
2021/12/16 04:33:39;;;;;;;;;;;;;;;14.87;68.14;103140.75;1049030;28;676;-60
2021/12/16 04:34:29;;;;;;;;;;;;;;;14.87;67.80;103144.28;1049617;28;802;-61
2021/12/16 04:35:20;;;;;;;;;;;;;;;14.86;68.28;103141.72;1048458;28;1718;-60
2021/12/16 04:36:10;;;;;;;;;;;;;;;14.87;68.27;103144.28;1049535;28;683;-60
2021/12/16 04:37:00;;;;;;;;;;;;;;;14.87;67.83;103140.75;1048684;28;1838;-60
2021/12/16 04:37:51;;;;;;;;;;;;;;;14.87;68.17;103149.66;1053049;28;766;-60
2021/12/16 04:38:41;;;;;;;;;;;;;;;14.86;68.01;103147.94;1053329;28;655;-59
2021/12/16 04:39:32;;;;;;;;;;;;;;;14.87;68.04;103154.16;1053190;28;777;-59
2021/12/16 04:40:22;;;;;;;;;;;;;;;14.87;67.88;103144.28;1053074;28;1144;-59
2021/12/16 04:41:13;;;;;;;;;;;;;;;14.87;68.14;103152.34;1053029;28;871;-59
2021/12/16 04:42:03;;;;;;;;;;;;;;;14.88;68.01;103151.41;1053221;28;686;-59
2021/12/16 04:42:59;;;;;;;;;;;;;;;14.85;68.11;103146.22;1053238;28;682;-58
2021/12/16 04:43:49;;;;;;;;;;;;;;;14.86;67.99;103149.75;1053369;28;688;-59
2021/12/16 04:44:40;;;;;;;;;;;;;;;14.87;67.73;103149.66;1049801;28;628;-59
2021/12/16 04:45:31;;;;;;;;;;;;;;;14.85;68.15;103148.03;1050409;28;763;-59
2021/12/16 04:46:21;;;;;;;;;;;;;;;14.85;68.21;103151.56;1054928;28;695;-60
2021/12/16 04:47:11;;;;;;;;;;;;;;;14.85;68.25;103153.38;1052380;28;1963;-60
2021/12/16 04:48:02;;;;;;;;;;;;;;;14.85;68.16;103153.38;1051961;28;2201;-61
2021/12/16 04:48:52;;;;;;;;;;;;;;;14.84;67.90;103155.19;1054413;28;765;-60
2021/12/16 04:49:43;;;;;;;;;;;;;;;14.84;67.78;103146.28;1053575;28;1549;-61
2021/12/16 04:50:33;;;;;;;;;;;;;;;14.85;68.43;103156.06;1053806;28;648;-61
2021/12/16 04:51:23;;;;;;;;;;;;;;;14.84;68.02;103147.16;1053807;28;1959;-61
2021/12/16 04:52:14;;;;;;;;;;;;;;;14.85;68.04;103151.56;1053678;28;687;-60
2021/12/16 04:53:04;;;;;;;;;;;;;;;14.85;67.74;103145.34;1053744;28;693;-61
2021/12/16 04:53:55;;;;;;;;;;;;;;;14.83;67.74;103140.03;1053035;28;742;-61
2021/12/16 04:54:45;;;;;;;;;;;;;;;14.83;67.54;103149.91;1053681;28;624;-61
2021/12/16 04:55:35;;;;;;;;;;;;;;;14.84;67.66;103143.59;1053668;28;669;-61
2021/12/16 04:56:26;;;;;;;;;;;;;;;14.82;67.75;103146.34;1048695;28;649;-61
2021/12/16 04:57:16;;;;;;;;;;;;;;;14.83;68.30;103144.53;1049636;28;2072;-61
2021/12/16 04:58:07;;;;;;;;;;;;;;;14.83;67.71;103153.47;1053587;28;644;-61
2021/12/16 04:58:57;;;;;;;;;;;;;;;14.83;67.77;103150.78;1053169;28;636;-61
2021/12/16 04:59:48;;;;;;;;;;;;;;;14.82;67.78;103156.22;1053135;28;681;-60
2021/12/16 05:00:38;;;;;;;;;;;;;;;14.81;67.68;103149.97;1053197;28;606;-61
2021/12/16 05:01:28;;;;;;;;;;;;;;;14.81;67.93;103155.34;1053238;28;711;-60
2021/12/16 05:02:19;;;;;;;;;;;;;;;14.81;67.79;103160.72;1053069;28;617;-60
2021/12/16 05:03:09;;;;;;;;;;;;;;;14.80;68.16;103150.91;1053211;28;706;-60
2021/12/16 05:04:00;;;;;;;;;;;;;;;14.80;68.04;103153.59;1049389;28;746;-61
2021/12/16 05:04:50;;;;;;;;;;;;;;;14.80;67.72;103156.28;1049466;28;696;-61
2021/12/16 05:05:40;;;;;;;;;;;;;;;14.79;67.68;103149.16;1048930;28;657;-61
2021/12/16 05:06:31;;;;;;;;;;;;;;;14.80;67.90;103150.03;1049150;28;649;-61
2021/12/16 05:07:22;;;;;;;;;;;;;;;14.79;67.84;103143.78;1048613;28;739;-61
2021/12/16 05:08:13;;;;;;;;;;;;;;;14.78;68.37;103150.09;1048951;28;766;-60
2021/12/16 05:09:03;;;;;;;;;;;;;;;14.77;67.87;103151.03;1048979;28;712;-61
2021/12/16 05:10:45;;;;;;;;;;;;;;;14.77;67.79;103155.53;1045877;28;672;-61
2021/12/16 05:11:36;;;;;;;;;;;;;;;14.77;67.76;103156.41;1045413;28;751;-61
2021/12/16 05:12:28;;;;;;;;;;;;;;;14.78;68.09;103159.97;1045681;28;776;-60
2021/12/16 05:13:22;;;;;;;;;;;;;;;14.79;67.83;103159.91;1045036;28;696;-61
2021/12/16 05:14:18;;;;;;;;;;;;;;;14.78;67.69;103166.22;1045267;28;1196;-61
2021/12/16 05:15:08;;;;;;;;;;;;;;;14.79;67.54;103167.94;1044846;28;731;-61
2021/12/16 05:16:02;;;;;;;;;;;;;;;14.80;68.07;103171.50;1045819;28;693;-61
2021/12/16 05:16:52;;;;;;;;;;;;;;;14.79;68.10;103178.69;1044844;28;637;-61
2021/12/16 05:17:46;;;;;;;;;;;;;;;14.79;67.77;103173.31;1046023;28;2033;-61
2021/12/16 05:18:37;;;;;;;;;;;;;;;14.77;68.26;103175.19;1046429;28;853;-61
2021/12/16 05:19:28;;;;;;;;;;;;;;;14.77;67.87;103174.31;1046608;28;644;-61
2021/12/16 05:20:18;;;;;;;;;;;;;;;14.78;68.14;103170.69;1040755;28;673;-61
2021/12/16 05:21:09;;;;;;;;;;;;;;;14.77;67.87;103177.88;1042198;28;791;-61
2021/12/16 05:24:15;;;;;;;;;;;;;;;14.77;68.20;103179.69;1045826;28;707;-61
2021/12/16 05:24:28;;;;;;;;;;;;;;;14.76;68.06;103170.78;1048663;28;1618;-61
2021/12/16 05:25:28;;;;;;;;;;;;;;;14.76;68.02;103175.25;1048777;28;1915;-61
2021/12/16 05:26:22;;;;;;;;;;;;;;;14.75;68.09;103171.72;1049389;28;787;-61
2021/12/16 05:27:12;;;;;;;;;;;;;;;14.75;67.57;103169.03;1049676;28;744;-60
2021/12/16 05:28:02;;;;;;;;;;;;;;;14.75;68.23;103171.72;1049334;28;729;-61
2021/12/16 05:28:53;;;;;;;;;;;;;;;14.75;67.45;103177.06;1048551;28;735;-61
2021/12/16 05:29:43;;;;;;;;;;;;;;;14.76;67.65;103169.91;1048847;28;752;-61
2021/12/16 05:30:34;;;;;;;;;;;;;;;14.75;68.03;103177.06;1045121;28;775;-61
2021/12/16 05:31:24;;;;;;;;;;;;;;;14.75;67.66;103170.84;1045135;28;1959;-60
2021/12/16 05:32:15;;;;;;;;;;;;;;;14.74;67.66;103169.09;1045309;28;649;-61
2021/12/16 05:33:05;;;;;;;;;;;;;;;14.75;67.63;103165.47;1045088;28;767;-61
2021/12/16 05:33:55;;;;;;;;;;;;;;;14.75;68.03;103169.03;1045240;28;736;-61
2021/12/16 05:34:46;;;;;;;;;;;;;;;14.74;67.93;103169.97;1047157;28;1937;-61
2021/12/16 05:35:36;;;;;;;;;;;;;;;14.74;68.22;103167.28;1048514;28;1860;-60
2021/12/16 05:36:27;;;;;;;;;;;;;;;14.74;67.78;103169.97;1046738;28;1624;-60
2021/12/16 05:37:17;;;;;;;;;;;;;;;14.72;68.12;103171.84;1045246;28;1493;-61
2021/12/16 05:38:07;;;;;;;;;;;;;;;14.74;68.12;103174.47;1045543;28;1627;-60
2021/12/16 05:38:58;;;;;;;;;;;;;;;14.75;67.82;103174.41;1048562;28;1438;-61
2021/12/16 05:39:48;;;;;;;;;;;;;;;14.76;68.17;103175.25;1045741;28;1007;-60
2021/12/16 05:40:39;;;;;;;;;;;;;;;14.77;67.80;103174.31;1048228;28;1221;-61
2021/12/16 05:41:29;;;;;;;;;;;;;;;14.78;67.69;103176.06;1042802;28;1348;-61
2021/12/16 05:42:20;;;;;;;;;;;;;;;14.78;68.06;103179.63;1046226;28;1283;-61
2021/12/16 05:43:10;;;;;;;;;;;;;;;14.79;67.55;103181.38;1047952;28;1106;-61
2021/12/16 05:44:00;;;;;;;;;;;;;;;14.83;67.44;103179.44;1048183;28;1229;-61
2021/12/16 05:44:51;;;;;;;;;;;;;;;14.85;67.83;103177.56;1046923;28;1498;-60
2021/12/16 05:45:41;;;;;;;;;;;;;;;14.88;67.60;103175.56;1044724;28;622;-60
2021/12/16 05:46:32;;;;;;;;;;;;;;;14.92;67.48;103173.63;1044904;28;691;-60
2021/12/16 05:47:22;;;;;;;;;;;;;;;14.93;67.61;103175.38;1044727;28;736;-60
2021/12/16 05:48:12;;;;;;;;;;;;;;;14.94;67.15;103177.97;1042496;28;1229;-60
2021/12/16 05:49:03;;;;;;;;;;;;;;;14.96;67.18;103163.63;1040578;28;1261;-60
2021/12/16 05:49:53;;;;;;;;;;;;;;;14.99;67.32;103166.16;1044466;28;1251;-59
2021/12/16 05:50:44;;;;;;;;;;;;;;;15.02;67.09;103171.41;1045027;28;661;-60
2021/12/16 05:51:34;;;;;;;;;;;;;;;15.04;67.22;103173.06;1045875;28;620;-59
2021/12/16 05:52:24;;;;;;;;;;;;;;;15.06;67.30;103176.53;1045747;28;717;-59
2021/12/16 05:53:15;;;;;;;;;;;;;;;15.09;67.23;103176.38;1048747;28;1189;-59
2021/12/16 05:54:05;;;;;;;;;;;;;;;15.14;67.19;103186.94;1045627;28;1344;-59
2021/12/16 05:54:56;;;;;;;;;;;;;;;15.18;67.79;103192.09;1048273;28;1086;-58
2021/12/16 05:55:46;;;;;;;;;;;;;;;15.22;68.32;103195.50;1046640;28;1216;-59
2021/12/16 05:56:37;;;;;;;;;;;;;;;15.24;69.12;103202.53;1044229;28;1284;-59
2021/12/16 05:57:27;;;;;;;;;;;;;;;15.29;70.40;103205.00;1046188;28;1259;-59
2021/12/16 05:58:19;;;;;;;;;;;;;;;15.33;71.61;103203.06;1049380;28;649;-59
2021/12/16 05:59:13;;;;;;;;;;;;;;;15.38;73.27;103199.22;1048889;28;657;-60
2021/12/16 06:00:03;;;;;;;;;;;;;;;15.42;73.88;103194.53;1048717;28;1977;-59
2021/12/16 06:00:54;;;;;;;;;;;;;;;15.44;74.29;103196.22;1048932;28;769;-59
2021/12/16 06:01:46;;;;;;;;;;;;;;;15.47;75.02;103195.19;1048706;28;803;-59
2021/12/16 06:02:36;;;;;;;;;;;;;;;15.49;74.84;103190.63;1045430;28;818;-59
2021/12/16 06:03:27;;;;;;;;;;;;;;;15.48;74.30;103186.19;1044829;28;645;-59
2021/12/16 06:04:19;;;;;;;;;;;;;;;15.48;73.96;103192.44;1053349;28;1274;-59
2021/12/16 06:05:10;;;;;;;;;;;;;;;15.48;73.48;103192.44;1053638;28;692;-58
2021/12/16 06:06:00;;;;;;;;;;;;;;;15.47;73.47;103193.38;1054701;28;704;-59
2021/12/16 06:06:50;;;;;;;;;;;;;;;15.47;73.56;103197.88;1053372;28;1368;-60
2021/12/16 06:07:41;;;;;;;;;;;;;;;15.47;73.20;103188.00;1052803;28;645;-59
2021/12/16 06:08:31;;;;;;;;;;;;;;;15.48;73.16;103191.56;1051871;28;1564;-59
2021/12/16 06:09:22;;;;;;;;;;;;;;;15.48;72.97;103188.88;1052042;28;1836;-59
2021/12/16 06:10:39;;;;;;;;;;;;;;;15.46;72.51;103186.25;1050914;28;1338;-59
2021/12/16 06:11:25;;;;;;;;;;;;;;;15.50;71.99;103187.00;1053203;28;1971;-59
2021/12/16 06:12:16;;;;;;;;;;;;;;;15.52;71.94;103191.34;1050250;28;1607;-58
2021/12/16 06:13:06;;;;;;;;;;;;;;;15.52;72.07;103185.97;1052653;28;1524;-60
2021/12/16 06:28:02;;;;;;;;;;;;;;;15.39;70.93;103211.72;1052818;28;1404;-59
2021/12/16 06:28:53;;;;;;;;;;;;;;;15.39;70.75;103216.22;1054071;28;1761;-59
2021/12/16 06:29:43;;;;;;;;;;;;;;;15.37;70.88;103213.59;1053569;28;849;-59
2021/12/16 06:30:34;;;;;;;;;;;;;;;15.37;70.72;103215.41;1053765;28;692;-59
2021/12/16 06:31:24;;;;;;;;;;;;;;;15.36;70.71;103219.91;1053600;28;1878;-59
2021/12/16 06:32:15;;;;;;;;;;;;;;;15.35;70.75;103211.91;1050722;28;659;-59
2021/12/16 06:33:05;;;;;;;;;;;;;;;15.33;70.30;103211.97;1051392;28;1342;-59
2021/12/16 06:33:56;;;;;;;;;;;;;;;15.31;70.47;103208.50;1054303;28;1677;-60
2021/12/16 06:34:46;;;;;;;;;;;;;;;15.31;70.68;103216.56;1053980;28;1477;-59
2021/12/16 06:35:36;;;;;;;;;;;;;;;15.29;70.53;103211.25;1051658;28;1490;-59
2021/12/16 06:36:27;;;;;;;;;;;;;;;15.29;70.33;103215.75;1054000;28;1727;-59
2021/12/16 06:37:17;;;;;;;;;;;;;;;15.29;70.77;103218.44;1054205;28;1694;-59
2021/12/16 06:38:08;;;;;;;;;;;;;;;15.29;69.75;103218.44;1054520;28;1582;-59
2021/12/16 06:38:58;;;;;;;;;;;;;;;15.26;70.38;103222.13;1049828;28;1518;-60
2021/12/16 06:39:49;;;;;;;;;;;;;;;15.26;70.67;103222.13;1049534;28;1774;-59
2021/12/16 06:40:39;;;;;;;;;;;;;;;15.26;70.39;103221.25;1053465;28;1536;-59
2021/12/16 06:41:34;;;;;;;;;;;;;;;15.25;70.38;103230.25;1050145;28;812;-59
2021/12/16 06:42:26;;;;;;;;;;;;;;;15.23;70.53;103226.78;1050467;28;1380;-59
2021/12/16 06:43:18;;;;;;;;;;;;;;;15.22;70.37;103227.75;1052652;28;1496;-60
2021/12/16 06:44:16;;;;;;;;;;;;;;;15.21;70.20;103234.06;1052075;28;1468;-60
2021/12/16 06:45:12;;;;;;;;;;;;;;;15.20;70.57;103230.50;1053668;28;1481;-60
2021/12/16 06:46:05;;;;;;;;;;;;;;;15.21;70.52;103234.06;1054277;28;1801;-60